sensor_id;sensor_type;location;lat;lon;timestamp;temperature;humidity
48988;DHT22;34799;51.440;-2.534;2023-03-14T00:00:16;8.10;99.90
48988;DHT22;34799;51.440;-2.534;2023-03-14T00:02:45;8.00;99.90
48988;DHT22;34799;51.440;-2.534;2023-03-14T00:05:12;8.00;99.90
48988;DHT22;34799;51.440;-2.534;2023-03-14T00:07:39;7.90;99.90
48988;DHT22;34799;51.440;-2.534;2023-03-14T00:10:09;7.90;99.90
48988;DHT22;34799;51.440;-2.534;2023-03-14T00:12:38;7.90;99.90
48988;DHT22;34799;51.440;-2.534;2023-03-14T00:15:05;7.90;99.90
48988;DHT22;34799;51.440;-2.534;2023-03-14T00:17:35;7.80;99.90
48988;DHT22;34799;51.440;-2.534;2023-03-14T00:20:05;7.80;99.90
48988;DHT22;34799;51.440;-2.534;2023-03-14T00:26:43;7.60;99.90
48988;DHT22;34799;51.440;-2.534;2023-03-14T00:29:12;8.10;99.90
48988;DHT22;34799;51.440;-2.534;2023-03-14T00:31:39;7.40;99.90
48988;DHT22;34799;51.440;-2.534;2023-03-14T00:34:08;7.20;99.90
48988;DHT22;34799;51.440;-2.534;2023-03-14T00:40:40;7.10;99.90
48988;DHT22;34799;51.440;-2.534;2023-03-14T00:43:07;7.70;99.90
48988;DHT22;34799;51.440;-2.534;2023-03-14T00:45:34;6.90;99.90
48988;DHT22;34799;51.440;-2.534;2023-03-14T00:48:02;6.90;99.90
48988;DHT22;34799;51.440;-2.534;2023-03-14T00:50:30;6.90;99.90
48988;DHT22;34799;51.440;-2.534;2023-03-14T00:52:57;7.00;99.90
48988;DHT22;34799;51.440;-2.534;2023-03-14T00:55:24;6.80;99.90
48988;DHT22;34799;51.440;-2.534;2023-03-14T00:57:51;6.90;99.90
48988;DHT22;34799;51.440;-2.534;2023-03-14T01:00:18;7.30;99.90
48988;DHT22;34799;51.440;-2.534;2023-03-14T01:02:47;6.80;99.90
48988;DHT22;34799;51.440;-2.534;2023-03-14T01:05:14;6.80;99.90
48988;DHT22;34799;51.440;-2.534;2023-03-14T01:07:41;6.80;99.90
48988;DHT22;34799;51.440;-2.534;2023-03-14T01:10:09;6.80;99.90
48988;DHT22;34799;51.440;-2.534;2023-03-14T01:12:36;6.80;99.90
48988;DHT22;34799;51.440;-2.534;2023-03-14T01:15:04;7.50;99.90
48988;DHT22;34799;51.440;-2.534;2023-03-14T01:17:32;6.70;99.90
48988;DHT22;34799;51.440;-2.534;2023-03-14T01:20:00;6.70;99.90
48988;DHT22;34799;51.440;-2.534;2023-03-14T01:22:28;6.70;99.90
48988;DHT22;34799;51.440;-2.534;2023-03-14T01:24:55;6.60;99.90
48988;DHT22;34799;51.440;-2.534;2023-03-14T01:27:22;6.60;99.90
48988;DHT22;34799;51.440;-2.534;2023-03-14T01:29:51;6.60;99.90
48988;DHT22;34799;51.440;-2.534;2023-03-14T01:32:18;6.60;99.90
48988;DHT22;34799;51.440;-2.534;2023-03-14T01:34:45;6.60;99.90
48988;DHT22;34799;51.440;-2.534;2023-03-14T01:37:12;6.60;99.90
48988;DHT22;34799;51.440;-2.534;2023-03-14T01:39:40;6.60;99.90
48988;DHT22;34799;51.440;-2.534;2023-03-14T01:42:07;6.50;99.90
48988;DHT22;34799;51.440;-2.534;2023-03-14T01:44:50;6.50;99.90
48988;DHT22;34799;51.440;-2.534;2023-03-14T01:47:18;6.50;99.90
48988;DHT22;34799;51.440;-2.534;2023-03-14T01:50:06;7.30;99.90
48988;DHT22;34799;51.440;-2.534;2023-03-14T01:52:41;6.40;99.90
48988;DHT22;34799;51.440;-2.534;2023-03-14T01:55:12;6.50;99.90
48988;DHT22;34799;51.440;-2.534;2023-03-14T01:57:47;6.40;99.90
48988;DHT22;34799;51.440;-2.534;2023-03-14T02:00:18;6.40;99.90
48988;DHT22;34799;51.440;-2.534;2023-03-14T02:02:53;6.40;99.90
48988;DHT22;34799;51.440;-2.534;2023-03-14T02:05:34;6.30;99.90
48988;DHT22;34799;51.440;-2.534;2023-03-14T02:08:11;6.30;99.90
48988;DHT22;34799;51.440;-2.534;2023-03-14T02:11:09;6.30;99.90
48988;DHT22;34799;51.440;-2.534;2023-03-14T02:13:48;6.30;99.90
48988;DHT22;34799;51.440;-2.534;2023-03-14T02:16:34;6.30;99.90
48988;DHT22;34799;51.440;-2.534;2023-03-14T02:19:06;6.20;99.90
48988;DHT22;34799;51.440;-2.534;2023-03-14T02:22:10;6.20;99.90
48988;DHT22;34799;51.440;-2.534;2023-03-14T02:25:41;6.10;99.90
48988;DHT22;34799;51.440;-2.534;2023-03-14T02:28:11;6.10;99.90
48988;DHT22;34799;51.440;-2.534;2023-03-14T02:30:40;6.00;99.90
48988;DHT22;34799;51.440;-2.534;2023-03-14T02:33:18;7.30;99.90
48988;DHT22;34799;51.440;-2.534;2023-03-14T02:35:53;5.90;99.90
48988;DHT22;34799;51.440;-2.534;2023-03-14T02:38:23;5.80;99.90
48988;DHT22;34799;51.440;-2.534;2023-03-14T02:40:53;5.90;99.90
48988;DHT22;34799;51.440;-2.534;2023-03-14T02:43:20;6.30;99.90
48988;DHT22;34799;51.440;-2.534;2023-03-14T02:45:54;5.90;99.90
48988;DHT22;34799;51.440;-2.534;2023-03-14T02:48:28;5.90;99.90
48988;DHT22;34799;51.440;-2.534;2023-03-14T02:50:58;5.90;99.90
48988;DHT22;34799;51.440;-2.534;2023-03-14T02:53:30;5.80;99.90
48988;DHT22;34799;51.440;-2.534;2023-03-14T02:56:02;5.80;99.90
48988;DHT22;34799;51.440;-2.534;2023-03-14T02:58:31;5.80;99.90
48988;DHT22;34799;51.440;-2.534;2023-03-14T03:01:06;6.30;99.90
48988;DHT22;34799;51.440;-2.534;2023-03-14T03:03:33;5.90;99.90
48988;DHT22;34799;51.440;-2.534;2023-03-14T03:06:01;7.10;99.90
48988;DHT22;34799;51.440;-2.534;2023-03-14T03:08:29;5.80;99.90
48988;DHT22;34799;51.440;-2.534;2023-03-14T03:10:58;5.80;99.90
48988;DHT22;34799;51.440;-2.534;2023-03-14T03:13:27;5.80;99.90
48988;DHT22;34799;51.440;-2.534;2023-03-14T03:15:57;5.90;99.90
48988;DHT22;34799;51.440;-2.534;2023-03-14T03:18:24;5.90;99.90
48988;DHT22;34799;51.440;-2.534;2023-03-14T03:20:51;5.80;99.90
48988;DHT22;34799;51.440;-2.534;2023-03-14T03:23:18;5.90;99.90
48988;DHT22;34799;51.440;-2.534;2023-03-14T03:25:49;5.90;99.90
48988;DHT22;34799;51.440;-2.534;2023-03-14T03:28:17;6.00;99.90
48988;DHT22;34799;51.440;-2.534;2023-03-14T03:30:45;6.70;99.90
48988;DHT22;34799;51.440;-2.534;2023-03-14T03:33:12;5.90;99.90
48988;DHT22;34799;51.440;-2.534;2023-03-14T03:35:45;6.00;99.90
48988;DHT22;34799;51.440;-2.534;2023-03-14T03:38:17;6.10;99.90
48988;DHT22;34799;51.440;-2.534;2023-03-14T03:40:45;6.10;99.90
48988;DHT22;34799;51.440;-2.534;2023-03-14T03:43:12;6.20;99.90
48988;DHT22;34799;51.440;-2.534;2023-03-14T03:45:44;6.10;99.90
48988;DHT22;34799;51.440;-2.534;2023-03-14T03:48:11;6.10;99.90
48988;DHT22;34799;51.440;-2.534;2023-03-14T03:50:45;6.10;99.90
48988;DHT22;34799;51.440;-2.534;2023-03-14T03:53:14;6.10;99.90
48988;DHT22;34799;51.440;-2.534;2023-03-14T03:55:43;6.00;99.90
48988;DHT22;34799;51.440;-2.534;2023-03-14T03:58:12;6.00;99.90
48988;DHT22;34799;51.440;-2.534;2023-03-14T04:00:39;6.00;99.90
48988;DHT22;34799;51.440;-2.534;2023-03-14T04:03:06;6.00;99.90
48988;DHT22;34799;51.440;-2.534;2023-03-14T04:05:34;6.00;99.90
48988;DHT22;34799;51.440;-2.534;2023-03-14T04:08:07;6.90;99.90
48988;DHT22;34799;51.440;-2.534;2023-03-14T04:10:35;6.00;99.90
48988;DHT22;34799;51.440;-2.534;2023-03-14T04:13:10;6.00;99.90
48988;DHT22;34799;51.440;-2.534;2023-03-14T04:15:40;5.90;99.90
48988;DHT22;34799;51.440;-2.534;2023-03-14T04:18:28;5.90;99.90
48988;DHT22;34799;51.440;-2.534;2023-03-14T04:20:57;5.90;99.90
48988;DHT22;34799;51.440;-2.534;2023-03-14T04:23:41;5.80;99.90
48988;DHT22;34799;51.440;-2.534;2023-03-14T04:26:10;5.70;99.90
48988;DHT22;34799;51.440;-2.534;2023-03-14T04:28:37;5.70;99.90
48988;DHT22;34799;51.440;-2.534;2023-03-14T04:31:17;6.40;99.90
48988;DHT22;34799;51.440;-2.534;2023-03-14T04:33:47;5.70;99.90
48988;DHT22;34799;51.440;-2.534;2023-03-14T04:36:18;6.70;99.90
48988;DHT22;34799;51.440;-2.534;2023-03-14T04:38:47;5.70;99.90
48988;DHT22;34799;51.440;-2.534;2023-03-14T04:41:18;6.00;99.90
48988;DHT22;34799;51.440;-2.534;2023-03-14T04:43:45;6.40;99.90
48988;DHT22;34799;51.440;-2.534;2023-03-14T04:46:14;6.60;99.90
48988;DHT22;34799;51.440;-2.534;2023-03-14T04:48:42;5.70;99.90
48988;DHT22;34799;51.440;-2.534;2023-03-14T04:51:09;5.70;99.90
48988;DHT22;34799;51.440;-2.534;2023-03-14T04:53:37;5.70;99.90
48988;DHT22;34799;51.440;-2.534;2023-03-14T04:56:08;5.70;99.90
48988;DHT22;34799;51.440;-2.534;2023-03-14T04:58:37;5.70;99.90
48988;DHT22;34799;51.440;-2.534;2023-03-14T05:01:07;5.70;99.90
48988;DHT22;34799;51.440;-2.534;2023-03-14T05:03:54;5.70;99.90
48988;DHT22;34799;51.440;-2.534;2023-03-14T05:06:47;5.80;99.90
48988;DHT22;34799;51.440;-2.534;2023-03-14T05:09:35;5.80;99.90
48988;DHT22;34799;51.440;-2.534;2023-03-14T05:12:31;5.70;99.90
48988;DHT22;34799;51.440;-2.534;2023-03-14T05:15:19;5.70;99.90
48988;DHT22;34799;51.440;-2.534;2023-03-14T05:18:09;6.10;99.90
48988;DHT22;34799;51.440;-2.534;2023-03-14T05:20:55;5.70;99.90
48988;DHT22;34799;51.440;-2.534;2023-03-14T05:23:46;6.90;99.90
48988;DHT22;34799;51.440;-2.534;2023-03-14T05:26:26;5.80;99.90
48988;DHT22;34799;51.440;-2.534;2023-03-14T05:29:14;5.70;99.90
48988;DHT22;34799;51.440;-2.534;2023-03-14T05:31:56;5.70;99.90
48988;DHT22;34799;51.440;-2.534;2023-03-14T05:34:34;5.60;99.90
48988;DHT22;34799;51.440;-2.534;2023-03-14T05:37:25;5.50;99.90
48988;DHT22;34799;51.440;-2.534;2023-03-14T05:40:07;5.50;99.90
48988;DHT22;34799;51.440;-2.534;2023-03-14T05:42:50;5.40;99.90
48988;DHT22;34799;51.440;-2.534;2023-03-14T05:45:31;5.40;99.90
48988;DHT22;34799;51.440;-2.534;2023-03-14T05:48:20;5.50;99.90
48988;DHT22;34799;51.440;-2.534;2023-03-14T05:51:28;5.50;99.90
48988;DHT22;34799;51.440;-2.534;2023-03-14T05:54:16;5.40;99.90
48988;DHT22;34799;51.440;-2.534;2023-03-14T05:56:45;5.40;99.90
48988;DHT22;34799;51.440;-2.534;2023-03-14T05:59:33;5.40;99.90
48988;DHT22;34799;51.440;-2.534;2023-03-14T06:02:18;5.40;99.90
48988;DHT22;34799;51.440;-2.534;2023-03-14T06:04:55;5.50;99.90
48988;DHT22;34799;51.440;-2.534;2023-03-14T06:07:23;5.50;99.90
48988;DHT22;34799;51.440;-2.534;2023-03-14T06:09:51;5.50;99.90
48988;DHT22;34799;51.440;-2.534;2023-03-14T06:12:18;5.50;99.90
48988;DHT22;34799;51.440;-2.534;2023-03-14T06:14:46;8.30;99.90
48988;DHT22;34799;51.440;-2.534;2023-03-14T06:17:13;5.40;99.90
48988;DHT22;34799;51.440;-2.534;2023-03-14T06:19:48;5.30;99.90
48988;DHT22;34799;51.440;-2.534;2023-03-14T06:22:17;5.20;99.90
48988;DHT22;34799;51.440;-2.534;2023-03-14T06:24:46;5.20;99.90
48988;DHT22;34799;51.440;-2.534;2023-03-14T06:27:15;5.20;99.90
48988;DHT22;34799;51.440;-2.534;2023-03-14T06:29:44;5.20;99.90
48988;DHT22;34799;51.440;-2.534;2023-03-14T06:32:11;5.20;99.90
48988;DHT22;34799;51.440;-2.534;2023-03-14T06:34:38;5.20;99.90
48988;DHT22;34799;51.440;-2.534;2023-03-14T06:37:06;5.10;99.90
48988;DHT22;34799;51.440;-2.534;2023-03-14T06:39:33;5.20;99.90
48988;DHT22;34799;51.440;-2.534;2023-03-14T06:42:07;5.20;99.90
48988;DHT22;34799;51.440;-2.534;2023-03-14T06:44:35;5.20;99.90
48988;DHT22;34799;51.440;-2.534;2023-03-14T06:47:04;5.30;99.90
48988;DHT22;34799;51.440;-2.534;2023-03-14T06:49:32;5.30;99.90
48988;DHT22;34799;51.440;-2.534;2023-03-14T06:52:01;5.80;99.90
48988;DHT22;34799;51.440;-2.534;2023-03-14T06:54:31;5.30;99.90
48988;DHT22;34799;51.440;-2.534;2023-03-14T06:56:58;5.30;99.90
48988;DHT22;34799;51.440;-2.534;2023-03-14T06:59:25;5.30;99.90
48988;DHT22;34799;51.440;-2.534;2023-03-14T07:01:52;5.90;99.90
48988;DHT22;34799;51.440;-2.534;2023-03-14T07:04:19;5.40;99.90
48988;DHT22;34799;51.440;-2.534;2023-03-14T07:06:50;5.90;99.90
48988;DHT22;34799;51.440;-2.534;2023-03-14T07:09:17;5.30;99.90
48988;DHT22;34799;51.440;-2.534;2023-03-14T07:11:51;5.40;99.90
48988;DHT22;34799;51.440;-2.534;2023-03-14T07:14:18;5.30;99.90
48988;DHT22;34799;51.440;-2.534;2023-03-14T07:16:48;5.30;99.90
48988;DHT22;34799;51.440;-2.534;2023-03-14T07:19:15;5.30;99.90
48988;DHT22;34799;51.440;-2.534;2023-03-14T07:21:43;5.40;99.90
48988;DHT22;34799;51.440;-2.534;2023-03-14T07:24:12;5.40;99.90
48988;DHT22;34799;51.440;-2.534;2023-03-14T07:26:40;5.40;99.90
48988;DHT22;34799;51.440;-2.534;2023-03-14T07:29:07;5.70;99.90
48988;DHT22;34799;51.440;-2.534;2023-03-14T07:31:34;5.40;99.90
48988;DHT22;34799;51.440;-2.534;2023-03-14T07:34:03;5.40;99.90
48988;DHT22;34799;51.440;-2.534;2023-03-14T07:36:37;5.40;99.90
48988;DHT22;34799;51.440;-2.534;2023-03-14T07:39:04;5.40;99.90
48988;DHT22;34799;51.440;-2.534;2023-03-14T07:41:32;5.70;99.90
48988;DHT22;34799;51.440;-2.534;2023-03-14T07:44:17;5.50;99.90
48988;DHT22;34799;51.440;-2.534;2023-03-14T07:46:44;5.50;99.90
48988;DHT22;34799;51.440;-2.534;2023-03-14T07:49:11;5.60;99.90
48988;DHT22;34799;51.440;-2.534;2023-03-14T07:51:40;6.50;99.90
48988;DHT22;34799;51.440;-2.534;2023-03-14T07:54:07;5.80;99.90
48988;DHT22;34799;51.440;-2.534;2023-03-14T07:56:34;5.90;99.90
48988;DHT22;34799;51.440;-2.534;2023-03-14T07:59:01;5.90;99.90
48988;DHT22;34799;51.440;-2.534;2023-03-14T08:01:28;5.80;99.90
48988;DHT22;34799;51.440;-2.534;2023-03-14T08:03:55;5.80;99.90
48988;DHT22;34799;51.440;-2.534;2023-03-14T08:06:22;5.80;99.90
48988;DHT22;34799;51.440;-2.534;2023-03-14T08:08:50;5.80;99.90
48988;DHT22;34799;51.440;-2.534;2023-03-14T08:11:18;5.90;99.90
48988;DHT22;34799;51.440;-2.534;2023-03-14T08:13:45;5.90;99.90
48988;DHT22;34799;51.440;-2.534;2023-03-14T08:16:18;5.90;99.90
48988;DHT22;34799;51.440;-2.534;2023-03-14T08:18:45;6.00;99.90
48988;DHT22;34799;51.440;-2.534;2023-03-14T08:21:12;6.10;99.90
48988;DHT22;34799;51.440;-2.534;2023-03-14T08:23:40;6.10;99.90
48988;DHT22;34799;51.440;-2.534;2023-03-14T08:26:08;6.90;99.90
48988;DHT22;34799;51.440;-2.534;2023-03-14T08:28:36;6.10;99.90
48988;DHT22;34799;51.440;-2.534;2023-03-14T08:31:03;6.20;99.90
48988;DHT22;34799;51.440;-2.534;2023-03-14T08:33:31;6.20;99.90
48988;DHT22;34799;51.440;-2.534;2023-03-14T08:35:59;6.20;99.90
48988;DHT22;34799;51.440;-2.534;2023-03-14T08:38:26;6.30;99.90
48988;DHT22;34799;51.440;-2.534;2023-03-14T08:40:58;6.40;99.90
48988;DHT22;34799;51.440;-2.534;2023-03-14T08:43:26;6.40;99.90
48988;DHT22;34799;51.440;-2.534;2023-03-14T08:45:53;6.40;99.90
48988;DHT22;34799;51.440;-2.534;2023-03-14T08:48:21;6.40;99.90
48988;DHT22;34799;51.440;-2.534;2023-03-14T08:50:49;6.60;99.90
48988;DHT22;34799;51.440;-2.534;2023-03-14T08:53:16;6.60;99.90
48988;DHT22;34799;51.440;-2.534;2023-03-14T08:55:43;6.60;99.90
48988;DHT22;34799;51.440;-2.534;2023-03-14T08:58:10;6.70;99.90
48988;DHT22;34799;51.440;-2.534;2023-03-14T09:00:37;6.60;99.90
48988;DHT22;34799;51.440;-2.534;2023-03-14T09:03:04;6.70;99.90
48988;DHT22;34799;51.440;-2.534;2023-03-14T09:05:35;6.70;99.90
48988;DHT22;34799;51.440;-2.534;2023-03-14T09:08:02;6.70;99.90
48988;DHT22;34799;51.440;-2.534;2023-03-14T09:10:29;6.70;99.90
48988;DHT22;34799;51.440;-2.534;2023-03-14T09:12:56;6.60;99.90
48988;DHT22;34799;51.440;-2.534;2023-03-14T09:15:25;7.50;99.90
48988;DHT22;34799;51.440;-2.534;2023-03-14T09:17:52;6.70;99.90
48988;DHT22;34799;51.440;-2.534;2023-03-14T09:20:19;6.80;99.90
48988;DHT22;34799;51.440;-2.534;2023-03-14T09:22:46;6.80;99.90
48988;DHT22;34799;51.440;-2.534;2023-03-14T09:25:13;7.60;99.90
48988;DHT22;34799;51.440;-2.534;2023-03-14T09:27:40;7.00;99.90
48988;DHT22;34799;51.440;-2.534;2023-03-14T09:30:10;7.00;99.90
48988;DHT22;34799;51.440;-2.534;2023-03-14T09:32:37;6.90;99.90
48988;DHT22;34799;51.440;-2.534;2023-03-14T09:35:05;6.80;99.90
48988;DHT22;34799;51.440;-2.534;2023-03-14T09:37:32;6.80;99.90
48988;DHT22;34799;51.440;-2.534;2023-03-14T09:39:59;6.90;99.90
48988;DHT22;34799;51.440;-2.534;2023-03-14T09:42:28;7.20;99.90
48988;DHT22;34799;51.440;-2.534;2023-03-14T09:45:03;6.80;99.90
48988;DHT22;34799;51.440;-2.534;2023-03-14T09:47:33;6.90;99.90
48988;DHT22;34799;51.440;-2.534;2023-03-14T09:50:05;7.40;99.90
48988;DHT22;34799;51.440;-2.534;2023-03-14T09:52:37;6.90;99.90
48988;DHT22;34799;51.440;-2.534;2023-03-14T09:55:14;8.00;99.90
48988;DHT22;34799;51.440;-2.534;2023-03-14T09:57:43;7.10;99.90
48988;DHT22;34799;51.440;-2.534;2023-03-14T10:02:55;7.10;99.90
48988;DHT22;34799;51.440;-2.534;2023-03-14T10:05:26;7.30;99.90
48988;DHT22;34799;51.440;-2.534;2023-03-14T10:07:56;7.30;99.90
48988;DHT22;34799;51.440;-2.534;2023-03-14T10:10:26;7.40;99.90
48988;DHT22;34799;51.440;-2.534;2023-03-14T10:13:10;7.50;99.90
48988;DHT22;34799;51.440;-2.534;2023-03-14T10:15:41;8.30;99.90
48988;DHT22;34799;51.440;-2.534;2023-03-14T10:18:12;7.70;99.90
48988;DHT22;34799;51.440;-2.534;2023-03-14T10:20:44;7.70;99.90
48988;DHT22;34799;51.440;-2.534;2023-03-14T10:25:45;7.80;99.90
48988;DHT22;34799;51.440;-2.534;2023-03-14T10:28:32;7.70;99.90
48988;DHT22;34799;51.440;-2.534;2023-03-14T10:31:01;7.60;99.90
48988;DHT22;34799;51.440;-2.534;2023-03-14T10:33:30;7.60;99.90
48988;DHT22;34799;51.440;-2.534;2023-03-14T10:36:01;7.60;99.90
48988;DHT22;34799;51.440;-2.534;2023-03-14T10:38:34;7.60;99.90
48988;DHT22;34799;51.440;-2.534;2023-03-14T10:41:02;7.50;99.90
48988;DHT22;34799;51.440;-2.534;2023-03-14T10:43:35;7.50;99.90
48988;DHT22;34799;51.440;-2.534;2023-03-14T10:46:09;7.60;99.90
48988;DHT22;34799;51.440;-2.534;2023-03-14T10:48:56;7.50;99.90
48988;DHT22;34799;51.440;-2.534;2023-03-14T10:51:29;7.40;99.90
48988;DHT22;34799;51.440;-2.534;2023-03-14T10:54:01;7.90;99.90
48988;DHT22;34799;51.440;-2.534;2023-03-14T10:56:38;7.70;99.90
48988;DHT22;34799;51.440;-2.534;2023-03-14T10:59:15;7.40;99.90
48988;DHT22;34799;51.440;-2.534;2023-03-14T11:01:55;7.50;99.90
48988;DHT22;34799;51.440;-2.534;2023-03-14T11:07:18;7.80;99.90
48988;DHT22;34799;51.440;-2.534;2023-03-14T11:10:03;7.90;99.90
48988;DHT22;34799;51.440;-2.534;2023-03-14T11:12:41;8.00;99.90
48988;DHT22;34799;51.440;-2.534;2023-03-14T11:18:24;8.10;99.90
48988;DHT22;34799;51.440;-2.534;2023-03-14T11:21:13;8.10;99.90
48988;DHT22;34799;51.440;-2.534;2023-03-14T11:26:48;7.90;99.90
48988;DHT22;34799;51.440;-2.534;2023-03-14T11:31:46;7.90;99.90
48988;DHT22;34799;51.440;-2.534;2023-03-14T11:36:51;8.10;99.90
48988;DHT22;34799;51.440;-2.534;2023-03-14T11:39:20;8.20;99.90
48988;DHT22;34799;51.440;-2.534;2023-03-14T11:41:53;8.30;99.90
48988;DHT22;34799;51.440;-2.534;2023-03-14T11:44:36;8.50;99.90
48988;DHT22;34799;51.440;-2.534;2023-03-14T11:50:18;8.70;99.90
48988;DHT22;34799;51.440;-2.534;2023-03-14T11:52:55;8.90;99.90
48988;DHT22;34799;51.440;-2.534;2023-03-14T11:55:32;9.20;99.90
48988;DHT22;34799;51.440;-2.534;2023-03-14T11:58:15;9.20;99.90
48988;DHT22;34799;51.440;-2.534;2023-03-14T12:00:47;9.10;99.90
48988;DHT22;34799;51.440;-2.534;2023-03-14T12:09:00;9.20;99.90
48988;DHT22;34799;51.440;-2.534;2023-03-14T12:14:36;9.20;99.90
48988;DHT22;34799;51.440;-2.534;2023-03-14T12:17:18;9.30;99.90
48988;DHT22;34799;51.440;-2.534;2023-03-14T12:19:48;9.00;99.90
48988;DHT22;34799;51.440;-2.534;2023-03-14T12:22:31;9.00;99.90
48988;DHT22;34799;51.440;-2.534;2023-03-14T12:35:44;9.40;99.90
48988;DHT22;34799;51.440;-2.534;2023-03-14T12:41:19;9.40;99.90
48988;DHT22;34799;51.440;-2.534;2023-03-14T12:43:47;9.40;99.90
48988;DHT22;34799;51.440;-2.534;2023-03-14T12:48:49;9.30;99.90
48988;DHT22;34799;51.440;-2.534;2023-03-14T12:51:34;9.40;99.90
48988;DHT22;34799;51.440;-2.534;2023-03-14T12:59:38;9.60;99.90
48988;DHT22;34799;51.440;-2.534;2023-03-14T13:07:29;9.80;99.90
48988;DHT22;34799;51.440;-2.534;2023-03-14T13:10:03;9.90;99.90
48988;DHT22;34799;51.440;-2.534;2023-03-14T13:13:02;10.00;99.90
48988;DHT22;34799;51.440;-2.534;2023-03-14T13:15:34;10.00;99.90
48988;DHT22;34799;51.440;-2.534;2023-03-14T13:18:13;10.10;99.90
48988;DHT22;34799;51.440;-2.534;2023-03-14T13:21:17;10.20;99.90
48988;DHT22;34799;51.440;-2.534;2023-03-14T13:26:38;10.10;99.90
48988;DHT22;34799;51.440;-2.534;2023-03-14T13:29:22;10.20;99.90
48988;DHT22;34799;51.440;-2.534;2023-03-14T13:31:55;10.30;99.90
48988;DHT22;34799;51.440;-2.534;2023-03-14T13:34:30;10.60;99.80
48988;DHT22;34799;51.440;-2.534;2023-03-14T13:36:59;10.60;99.90
48988;DHT22;34799;51.440;-2.534;2023-03-14T13:39:27;10.70;99.90
48988;DHT22;34799;51.440;-2.534;2023-03-14T13:42:00;10.70;99.90
48988;DHT22;34799;51.440;-2.534;2023-03-14T13:44:38;10.70;99.60
48988;DHT22;34799;51.440;-2.534;2023-03-14T13:47:11;10.80;99.90
48988;DHT22;34799;51.440;-2.534;2023-03-14T13:49:39;10.80;99.90
48988;DHT22;34799;51.440;-2.534;2023-03-14T13:52:30;10.90;99.30
48988;DHT22;34799;51.440;-2.534;2023-03-14T13:54:59;11.00;99.90
48988;DHT22;34799;51.440;-2.534;2023-03-14T13:57:26;11.10;98.50
48988;DHT22;34799;51.440;-2.534;2023-03-14T14:00:16;11.20;99.10
48988;DHT22;34799;51.440;-2.534;2023-03-14T14:02:44;11.20;98.40
48988;DHT22;34799;51.440;-2.534;2023-03-14T14:05:11;11.00;98.70
48988;DHT22;34799;51.440;-2.534;2023-03-14T14:07:43;10.90;99.90
48988;DHT22;34799;51.440;-2.534;2023-03-14T14:10:12;11.00;99.90
48988;DHT22;34799;51.440;-2.534;2023-03-14T14:13:02;11.20;99.90
48988;DHT22;34799;51.440;-2.534;2023-03-14T14:15:32;11.30;99.90
48988;DHT22;34799;51.440;-2.534;2023-03-14T14:18:04;11.20;99.90
48988;DHT22;34799;51.440;-2.534;2023-03-14T14:20:36;11.20;99.90
48988;DHT22;34799;51.440;-2.534;2023-03-14T14:23:09;11.20;99.90
48988;DHT22;34799;51.440;-2.534;2023-03-14T14:25:37;11.20;99.90
48988;DHT22;34799;51.440;-2.534;2023-03-14T14:33:46;11.00;99.90
48988;DHT22;34799;51.440;-2.534;2023-03-14T14:39:21;11.20;99.90
48988;DHT22;34799;51.440;-2.534;2023-03-14T14:41:51;11.30;99.90
48988;DHT22;34799;51.440;-2.534;2023-03-14T14:44:28;11.20;99.90
48988;DHT22;34799;51.440;-2.534;2023-03-14T14:46:56;11.20;99.90
48988;DHT22;34799;51.440;-2.534;2023-03-14T14:49:30;11.50;99.90
48988;DHT22;34799;51.440;-2.534;2023-03-14T14:52:04;11.40;99.90
48988;DHT22;34799;51.440;-2.534;2023-03-14T14:54:47;11.20;99.90
48988;DHT22;34799;51.440;-2.534;2023-03-14T14:57:26;11.20;99.90
48988;DHT22;34799;51.440;-2.534;2023-03-14T15:00:05;11.10;99.90
48988;DHT22;34799;51.440;-2.534;2023-03-14T15:02:44;10.90;99.90
48988;DHT22;34799;51.440;-2.534;2023-03-14T15:05:19;10.70;99.90
48988;DHT22;34799;51.440;-2.534;2023-03-14T15:07:46;10.40;99.90
48988;DHT22;34799;51.440;-2.534;2023-03-14T15:10:17;10.30;99.90
48988;DHT22;34799;51.440;-2.534;2023-03-14T15:12:44;10.20;99.90
48988;DHT22;34799;51.440;-2.534;2023-03-14T15:15:12;10.20;99.90
48988;DHT22;34799;51.440;-2.534;2023-03-14T15:17:39;10.30;99.90
48988;DHT22;34799;51.440;-2.534;2023-03-14T15:20:11;10.30;99.90
48988;DHT22;34799;51.440;-2.534;2023-03-14T15:22:40;10.30;99.90
48988;DHT22;34799;51.440;-2.534;2023-03-14T15:25:08;10.40;99.90
48988;DHT22;34799;51.440;-2.534;2023-03-14T15:27:46;10.40;99.90
48988;DHT22;34799;51.440;-2.534;2023-03-14T15:30:13;10.50;99.90
48988;DHT22;34799;51.440;-2.534;2023-03-14T15:32:41;10.50;99.70
48988;DHT22;34799;51.440;-2.534;2023-03-14T15:35:09;10.60;99.90
48988;DHT22;34799;51.440;-2.534;2023-03-14T15:37:36;10.60;98.80
48988;DHT22;34799;51.440;-2.534;2023-03-14T15:40:06;10.60;99.30
48988;DHT22;34799;51.440;-2.534;2023-03-14T15:42:41;10.50;99.70
48988;DHT22;34799;51.440;-2.534;2023-03-14T15:45:08;10.50;99.90
48988;DHT22;34799;51.440;-2.534;2023-03-14T15:47:36;10.40;99.90
48988;DHT22;34799;51.440;-2.534;2023-03-14T15:50:03;10.60;99.90
48988;DHT22;34799;51.440;-2.534;2023-03-14T15:52:32;10.50;99.90
48988;DHT22;34799;51.440;-2.534;2023-03-14T15:54:59;10.40;99.90
48988;DHT22;34799;51.440;-2.534;2023-03-14T15:57:27;10.50;99.90
48988;DHT22;34799;51.440;-2.534;2023-03-14T15:59:54;10.40;99.90
48988;DHT22;34799;51.440;-2.534;2023-03-14T16:02:21;10.50;99.90
48988;DHT22;34799;51.440;-2.534;2023-03-14T16:04:48;12.30;99.90
48988;DHT22;34799;51.440;-2.534;2023-03-14T16:07:15;10.40;99.90
48988;DHT22;34799;51.440;-2.534;2023-03-14T16:09:43;10.40;99.90
48988;DHT22;34799;51.440;-2.534;2023-03-14T16:12:10;10.60;99.90
48988;DHT22;34799;51.440;-2.534;2023-03-14T16:14:37;10.60;99.90
48988;DHT22;34799;51.440;-2.534;2023-03-14T16:17:10;10.30;99.90
48988;DHT22;34799;51.440;-2.534;2023-03-14T16:19:37;10.20;99.90
48988;DHT22;34799;51.440;-2.534;2023-03-14T16:22:04;10.00;99.90
48988;DHT22;34799;51.440;-2.534;2023-03-14T16:24:31;9.60;99.90
48988;DHT22;34799;51.440;-2.534;2023-03-14T16:26:58;9.40;99.90
48988;DHT22;34799;51.440;-2.534;2023-03-14T16:29:25;9.30;99.90
48988;DHT22;34799;51.440;-2.534;2023-03-14T16:31:54;9.50;99.90
48988;DHT22;34799;51.440;-2.534;2023-03-14T16:34:22;9.80;99.90
48988;DHT22;34799;51.440;-2.534;2023-03-14T16:36:48;10.20;99.50
48988;DHT22;34799;51.440;-2.534;2023-03-14T16:39:18;10.50;98.80
48988;DHT22;34799;51.440;-2.534;2023-03-14T16:41:47;10.70;98.20
48988;DHT22;34799;51.440;-2.534;2023-03-14T16:44:15;10.90;97.80
48988;DHT22;34799;51.440;-2.534;2023-03-14T16:46:42;11.10;97.10
48988;DHT22;34799;51.440;-2.534;2023-03-14T16:49:09;11.20;97.10
48988;DHT22;34799;51.440;-2.534;2023-03-14T16:51:36;11.30;97.50
48988;DHT22;34799;51.440;-2.534;2023-03-14T16:54:03;11.30;97.30
48988;DHT22;34799;51.440;-2.534;2023-03-14T16:56:32;11.40;98.00
48988;DHT22;34799;51.440;-2.534;2023-03-14T16:58:59;11.30;97.60
48988;DHT22;34799;51.440;-2.534;2023-03-14T17:01:26;11.20;97.90
48988;DHT22;34799;51.440;-2.534;2023-03-14T17:03:53;11.20;98.30
48988;DHT22;34799;51.440;-2.534;2023-03-14T17:06:23;10.60;98.60
48988;DHT22;34799;51.440;-2.534;2023-03-14T17:08:52;10.20;99.20
48988;DHT22;34799;51.440;-2.534;2023-03-14T17:11:20;9.70;99.90
48988;DHT22;34799;51.440;-2.534;2023-03-14T17:13:47;9.30;99.90